sensor_id;sensor_type;location;lat;lon;timestamp;P1;durP1;ratioP1;P2;durP2;ratioP2
4565;SDS011;2295;51.050;14.608;2022-12-10T00:01:56;96.68;;;30.33;;
4565;SDS011;2295;51.050;14.608;2022-12-10T00:04:26;97.95;;;29.27;;
4565;SDS011;2295;51.050;14.608;2022-12-10T00:06:54;93.38;;;28.40;;
4565;SDS011;2295;51.050;14.608;2022-12-10T00:09:22;105.72;;;30.92;;
4565;SDS011;2295;51.050;14.608;2022-12-10T00:11:50;99.88;;;29.17;;
4565;SDS011;2295;51.050;14.608;2022-12-10T00:14:19;106.60;;;30.40;;
4565;SDS011;2295;51.050;14.608;2022-12-10T00:16:47;106.43;;;29.75;;
4565;SDS011;2295;51.050;14.608;2022-12-10T00:19:15;109.60;;;31.90;;
4565;SDS011;2295;51.050;14.608;2022-12-10T00:21:45;103.07;;;30.83;;
4565;SDS011;2295;51.050;14.608;2022-12-10T00:24:13;107.75;;;29.92;;
4565;SDS011;2295;51.050;14.608;2022-12-10T00:26:41;101.43;;;29.98;;
4565;SDS011;2295;51.050;14.608;2022-12-10T00:29:12;109.72;;;29.33;;
4565;SDS011;2295;51.050;14.608;2022-12-10T00:31:40;101.63;;;29.45;;
4565;SDS011;2295;51.050;14.608;2022-12-10T00:34:09;106.75;;;29.13;;
4565;SDS011;2295;51.050;14.608;2022-12-10T00:36:41;100.82;;;27.65;;
4565;SDS011;2295;51.050;14.608;2022-12-10T00:39:13;113.22;;;29.95;;
4565;SDS011;2295;51.050;14.608;2022-12-10T00:41:43;94.85;;;28.70;;
4565;SDS011;2295;51.050;14.608;2022-12-10T00:44:12;102.70;;;28.48;;
4565;SDS011;2295;51.050;14.608;2022-12-10T00:46:41;95.15;;;27.90;;
4565;SDS011;2295;51.050;14.608;2022-12-10T00:49:10;93.47;;;27.75;;
4565;SDS011;2295;51.050;14.608;2022-12-10T00:51:39;115.22;;;29.30;;
4565;SDS011;2295;51.050;14.608;2022-12-10T00:54:07;112.57;;;29.40;;
4565;SDS011;2295;51.050;14.608;2022-12-10T00:56:38;109.28;;;29.65;;
4565;SDS011;2295;51.050;14.608;2022-12-10T00:59:07;128.95;;;29.58;;
4565;SDS011;2295;51.050;14.608;2022-12-10T01:01:36;110.97;;;26.95;;
4565;SDS011;2295;51.050;14.608;2022-12-10T01:04:06;102.13;;;28.38;;
4565;SDS011;2295;51.050;14.608;2022-12-10T01:06:41;112.22;;;28.33;;
4565;SDS011;2295;51.050;14.608;2022-12-10T01:09:12;111.15;;;28.23;;
4565;SDS011;2295;51.050;14.608;2022-12-10T01:11:43;108.25;;;29.52;;
4565;SDS011;2295;51.050;14.608;2022-12-10T01:14:14;102.15;;;26.13;;
4565;SDS011;2295;51.050;14.608;2022-12-10T01:16:44;150.63;;;29.33;;
4565;SDS011;2295;51.050;14.608;2022-12-10T01:19:13;109.75;;;26.35;;
4565;SDS011;2295;51.050;14.608;2022-12-10T01:21:41;136.55;;;28.05;;
4565;SDS011;2295;51.050;14.608;2022-12-10T01:24:09;124.40;;;29.30;;
4565;SDS011;2295;51.050;14.608;2022-12-10T01:26:37;150.32;;;28.80;;
4565;SDS011;2295;51.050;14.608;2022-12-10T01:29:07;124.32;;;28.58;;
4565;SDS011;2295;51.050;14.608;2022-12-10T01:31:37;115.15;;;27.52;;
4565;SDS011;2295;51.050;14.608;2022-12-10T01:34:07;126.97;;;29.45;;
4565;SDS011;2295;51.050;14.608;2022-12-10T01:36:39;153.70;;;31.42;;
4565;SDS011;2295;51.050;14.608;2022-12-10T01:39:09;134.57;;;28.55;;
4565;SDS011;2295;51.050;14.608;2022-12-10T01:41:39;132.43;;;30.35;;
4565;SDS011;2295;51.050;14.608;2022-12-10T01:47:11;127.18;;;30.15;;
4565;SDS011;2295;51.050;14.608;2022-12-10T01:49:40;127.57;;;28.83;;
4565;SDS011;2295;51.050;14.608;2022-12-10T01:52:09;141.23;;;29.63;;
4565;SDS011;2295;51.050;14.608;2022-12-10T01:54:39;142.80;;;29.45;;
4565;SDS011;2295;51.050;14.608;2022-12-10T01:57:09;156.63;;;29.10;;
4565;SDS011;2295;51.050;14.608;2022-12-10T01:59:40;132.25;;;27.55;;
4565;SDS011;2295;51.050;14.608;2022-12-10T02:02:14;132.88;;;29.25;;
4565;SDS011;2295;51.050;14.608;2022-12-10T02:04:53;132.25;;;28.25;;
4565;SDS011;2295;51.050;14.608;2022-12-10T02:07:32;121.47;;;28.08;;
4565;SDS011;2295;51.050;14.608;2022-12-10T02:10:12;124.90;;;29.83;;
4565;SDS011;2295;51.050;14.608;2022-12-10T02:12:49;133.35;;;29.75;;
4565;SDS011;2295;51.050;14.608;2022-12-10T02:15:22;121.70;;;29.20;;
4565;SDS011;2295;51.050;14.608;2022-12-10T02:17:56;127.78;;;28.80;;
4565;SDS011;2295;51.050;14.608;2022-12-10T02:20:30;145.55;;;29.92;;
4565;SDS011;2295;51.050;14.608;2022-12-10T02:23:03;140.75;;;29.13;;
4565;SDS011;2295;51.050;14.608;2022-12-10T02:25:37;134.68;;;29.02;;
4565;SDS011;2295;51.050;14.608;2022-12-10T02:28:13;132.65;;;29.45;;
4565;SDS011;2295;51.050;14.608;2022-12-10T02:30:49;110.95;;;27.77;;
4565;SDS011;2295;51.050;14.608;2022-12-10T02:33:20;122.15;;;29.55;;
4565;SDS011;2295;51.050;14.608;2022-12-10T02:35:50;132.00;;;28.02;;
4565;SDS011;2295;51.050;14.608;2022-12-10T02:38:22;112.93;;;28.58;;
4565;SDS011;2295;51.050;14.608;2022-12-10T02:40:55;126.72;;;29.45;;
4565;SDS011;2295;51.050;14.608;2022-12-10T02:43:26;112.70;;;29.52;;
4565;SDS011;2295;51.050;14.608;2022-12-10T02:45:58;118.72;;;30.42;;
4565;SDS011;2295;51.050;14.608;2022-12-10T02:48:28;117.35;;;29.95;;
4565;SDS011;2295;51.050;14.608;2022-12-10T02:50:58;108.50;;;28.08;;
4565;SDS011;2295;51.050;14.608;2022-12-10T02:53:26;105.68;;;29.45;;
4565;SDS011;2295;51.050;14.608;2022-12-10T02:55:56;110.03;;;29.70;;
4565;SDS011;2295;51.050;14.608;2022-12-10T02:58:36;120.15;;;30.08;;
4565;SDS011;2295;51.050;14.608;2022-12-10T03:01:17;119.05;;;29.25;;
4565;SDS011;2295;51.050;14.608;2022-12-10T03:03:52;103.78;;;30.75;;
4565;SDS011;2295;51.050;14.608;2022-12-10T03:06:27;111.97;;;28.13;;
4565;SDS011;2295;51.050;14.608;2022-12-10T03:09:01;112.95;;;29.02;;
4565;SDS011;2295;51.050;14.608;2022-12-10T03:11:31;112.65;;;29.27;;
4565;SDS011;2295;51.050;14.608;2022-12-10T03:14:02;141.43;;;32.33;;
4565;SDS011;2295;51.050;14.608;2022-12-10T03:16:36;128.90;;;30.67;;
4565;SDS011;2295;51.050;14.608;2022-12-10T03:19:09;108.13;;;29.45;;
4565;SDS011;2295;51.050;14.608;2022-12-10T03:21:39;148.93;;;32.53;;
4565;SDS011;2295;51.050;14.608;2022-12-10T03:24:10;140.85;;;31.42;;
4565;SDS011;2295;51.050;14.608;2022-12-10T03:26:39;122.70;;;30.08;;
4565;SDS011;2295;51.050;14.608;2022-12-10T03:29:10;115.18;;;29.40;;
4565;SDS011;2295;51.050;14.608;2022-12-10T03:31:43;132.27;;;30.85;;
4565;SDS011;2295;51.050;14.608;2022-12-10T03:34:12;114.95;;;28.75;;
4565;SDS011;2295;51.050;14.608;2022-12-10T03:36:41;147.15;;;31.90;;
4565;SDS011;2295;51.050;14.608;2022-12-10T03:39:11;115.60;;;29.75;;
4565;SDS011;2295;51.050;14.608;2022-12-10T03:41:40;109.95;;;29.25;;
4565;SDS011;2295;51.050;14.608;2022-12-10T03:44:08;138.50;;;32.55;;
4565;SDS011;2295;51.050;14.608;2022-12-10T03:46:36;111.13;;;29.48;;
4565;SDS011;2295;51.050;14.608;2022-12-10T03:49:06;132.35;;;31.13;;
4565;SDS011;2295;51.050;14.608;2022-12-10T03:51:34;126.32;;;30.45;;
4565;SDS011;2295;51.050;14.608;2022-12-10T03:54:03;114.85;;;30.83;;
4565;SDS011;2295;51.050;14.608;2022-12-10T03:56:31;126.75;;;31.63;;
4565;SDS011;2295;51.050;14.608;2022-12-10T03:58:59;109.13;;;30.85;;
4565;SDS011;2295;51.050;14.608;2022-12-10T04:01:27;112.07;;;30.02;;
4565;SDS011;2295;51.050;14.608;2022-12-10T04:03:56;108.00;;;28.90;;
4565;SDS011;2295;51.050;14.608;2022-12-10T04:06:25;111.70;;;31.27;;
4565;SDS011;2295;51.050;14.608;2022-12-10T04:08:54;116.72;;;31.60;;
4565;SDS011;2295;51.050;14.608;2022-12-10T04:11:24;129.05;;;30.10;;
4565;SDS011;2295;51.050;14.608;2022-12-10T04:13:52;117.20;;;28.00;;
4565;SDS011;2295;51.050;14.608;2022-12-10T04:16:38;108.57;;;28.90;;
4565;SDS011;2295;51.050;14.608;2022-12-10T04:19:07;108.65;;;31.25;;
4565;SDS011;2295;51.050;14.608;2022-12-10T04:21:38;114.90;;;30.98;;
4565;SDS011;2295;51.050;14.608;2022-12-10T04:24:26;97.07;;;31.42;;
4565;SDS011;2295;51.050;14.608;2022-12-10T04:27:29;137.70;;;32.92;;
4565;SDS011;2295;51.050;14.608;2022-12-10T04:29:58;100.68;;;30.25;;
4565;SDS011;2295;51.050;14.608;2022-12-10T04:32:28;107.85;;;31.17;;
4565;SDS011;2295;51.050;14.608;2022-12-10T04:34:57;111.18;;;30.40;;
4565;SDS011;2295;51.050;14.608;2022-12-10T04:37:27;126.45;;;33.35;;
4565;SDS011;2295;51.050;14.608;2022-12-10T04:39:55;121.03;;;32.17;;
4565;SDS011;2295;51.050;14.608;2022-12-10T04:42:24;131.52;;;29.40;;
4565;SDS011;2295;51.050;14.608;2022-12-10T04:44:52;121.10;;;29.65;;
4565;SDS011;2295;51.050;14.608;2022-12-10T04:47:20;122.75;;;31.77;;
4565;SDS011;2295;51.050;14.608;2022-12-10T04:49:48;117.45;;;30.73;;
4565;SDS011;2295;51.050;14.608;2022-12-10T04:52:17;132.20;;;30.63;;
4565;SDS011;2295;51.050;14.608;2022-12-10T04:54:46;117.93;;;30.10;;
4565;SDS011;2295;51.050;14.608;2022-12-10T04:57:14;113.07;;;29.42;;
4565;SDS011;2295;51.050;14.608;2022-12-10T04:59:43;143.18;;;33.58;;
4565;SDS011;2295;51.050;14.608;2022-12-10T05:02:11;129.60;;;31.77;;
4565;SDS011;2295;51.050;14.608;2022-12-10T05:04:39;130.80;;;33.10;;
4565;SDS011;2295;51.050;14.608;2022-12-10T05:07:07;128.93;;;33.20;;
4565;SDS011;2295;51.050;14.608;2022-12-10T05:09:37;125.38;;;31.35;;
4565;SDS011;2295;51.050;14.608;2022-12-10T05:12:07;127.25;;;32.45;;
4565;SDS011;2295;51.050;14.608;2022-12-10T05:14:35;128.63;;;30.10;;
4565;SDS011;2295;51.050;14.608;2022-12-10T05:17:03;126.07;;;31.30;;
4565;SDS011;2295;51.050;14.608;2022-12-10T05:19:32;125.55;;;29.77;;
4565;SDS011;2295;51.050;14.608;2022-12-10T05:22:00;134.93;;;31.25;;
4565;SDS011;2295;51.050;14.608;2022-12-10T05:24:46;126.97;;;29.20;;
4565;SDS011;2295;51.050;14.608;2022-12-10T05:27:16;131.23;;;31.95;;
4565;SDS011;2295;51.050;14.608;2022-12-10T05:29:44;122.30;;;31.65;;
4565;SDS011;2295;51.050;14.608;2022-12-10T05:32:12;123.53;;;32.03;;
4565;SDS011;2295;51.050;14.608;2022-12-10T05:34:40;118.82;;;31.17;;
4565;SDS011;2295;51.050;14.608;2022-12-10T05:37:08;120.78;;;30.25;;
4565;SDS011;2295;51.050;14.608;2022-12-10T05:39:37;116.88;;;31.50;;
4565;SDS011;2295;51.050;14.608;2022-12-10T05:42:05;128.27;;;32.78;;
4565;SDS011;2295;51.050;14.608;2022-12-10T05:44:35;112.97;;;31.10;;
4565;SDS011;2295;51.050;14.608;2022-12-10T05:47:03;128.38;;;32.10;;
4565;SDS011;2295;51.050;14.608;2022-12-10T05:49:31;106.22;;;30.05;;
4565;SDS011;2295;51.050;14.608;2022-12-10T05:51:59;115.47;;;29.13;;
4565;SDS011;2295;51.050;14.608;2022-12-10T05:54:28;116.32;;;31.17;;
4565;SDS011;2295;51.050;14.608;2022-12-10T05:56:56;117.57;;;30.75;;
4565;SDS011;2295;51.050;14.608;2022-12-10T05:59:24;113.82;;;31.65;;
4565;SDS011;2295;51.050;14.608;2022-12-10T06:01:54;107.03;;;32.58;;
4565;SDS011;2295;51.050;14.608;2022-12-10T06:04:22;107.07;;;30.95;;
4565;SDS011;2295;51.050;14.608;2022-12-10T06:06:51;105.70;;;30.05;;
4565;SDS011;2295;51.050;14.608;2022-12-10T06:09:19;103.07;;;29.20;;
4565;SDS011;2295;51.050;14.608;2022-12-10T06:11:47;111.63;;;30.17;;
4565;SDS011;2295;51.050;14.608;2022-12-10T06:14:15;108.70;;;31.48;;
4565;SDS011;2295;51.050;14.608;2022-12-10T06:16:44;108.20;;;32.00;;
4565;SDS011;2295;51.050;14.608;2022-12-10T06:19:13;106.30;;;30.38;;
4565;SDS011;2295;51.050;14.608;2022-12-10T06:21:42;105.63;;;30.42;;
4565;SDS011;2295;51.050;14.608;2022-12-10T06:24:10;106.00;;;31.50;;
4565;SDS011;2295;51.050;14.608;2022-12-10T06:26:38;120.18;;;31.77;;
4565;SDS011;2295;51.050;14.608;2022-12-10T06:29:06;100.05;;;29.88;;
4565;SDS011;2295;51.050;14.608;2022-12-10T06:31:36;97.65;;;29.35;;
4565;SDS011;2295;51.050;14.608;2022-12-10T06:34:04;112.72;;;30.70;;
4565;SDS011;2295;51.050;14.608;2022-12-10T06:36:34;110.20;;;30.25;;
4565;SDS011;2295;51.050;14.608;2022-12-10T06:39:03;110.60;;;31.92;;
4565;SDS011;2295;51.050;14.608;2022-12-10T06:41:31;106.40;;;32.30;;
4565;SDS011;2295;51.050;14.608;2022-12-10T06:43:59;113.47;;;30.20;;
4565;SDS011;2295;51.050;14.608;2022-12-10T06:46:28;121.55;;;30.23;;
4565;SDS011;2295;51.050;14.608;2022-12-10T06:48:58;108.00;;;30.75;;
4565;SDS011;2295;51.050;14.608;2022-12-10T06:51:27;107.13;;;30.45;;
4565;SDS011;2295;51.050;14.608;2022-12-10T06:53:57;115.07;;;30.88;;
4565;SDS011;2295;51.050;14.608;2022-12-10T06:56:25;130.70;;;32.60;;
4565;SDS011;2295;51.050;14.608;2022-12-10T06:58:54;125.68;;;33.05;;
4565;SDS011;2295;51.050;14.608;2022-12-10T07:01:22;121.93;;;30.48;;
4565;SDS011;2295;51.050;14.608;2022-12-10T07:03:53;123.90;;;31.48;;
4565;SDS011;2295;51.050;14.608;2022-12-10T07:06:23;109.60;;;30.50;;
4565;SDS011;2295;51.050;14.608;2022-12-10T07:08:52;111.75;;;30.40;;
4565;SDS011;2295;51.050;14.608;2022-12-10T07:11:22;120.03;;;34.70;;
4565;SDS011;2295;51.050;14.608;2022-12-10T07:13:52;129.50;;;33.30;;
4565;SDS011;2295;51.050;14.608;2022-12-10T07:16:21;118.13;;;31.42;;
4565;SDS011;2295;51.050;14.608;2022-12-10T07:18:51;122.57;;;32.65;;
4565;SDS011;2295;51.050;14.608;2022-12-10T07:21:21;124.68;;;30.77;;
4565;SDS011;2295;51.050;14.608;2022-12-10T07:23:51;120.07;;;32.38;;
4565;SDS011;2295;51.050;14.608;2022-12-10T07:26:23;155.55;;;33.08;;
4565;SDS011;2295;51.050;14.608;2022-12-10T07:28:52;144.20;;;32.28;;
4565;SDS011;2295;51.050;14.608;2022-12-10T07:31:22;117.50;;;32.00;;
4565;SDS011;2295;51.050;14.608;2022-12-10T07:33:51;120.80;;;32.00;;
4565;SDS011;2295;51.050;14.608;2022-12-10T07:36:20;132.38;;;34.15;;
4565;SDS011;2295;51.050;14.608;2022-12-10T07:38:49;131.15;;;31.60;;
4565;SDS011;2295;51.050;14.608;2022-12-10T07:41:18;126.40;;;32.45;;
4565;SDS011;2295;51.050;14.608;2022-12-10T07:43:48;138.63;;;34.20;;
4565;SDS011;2295;51.050;14.608;2022-12-10T07:46:17;134.98;;;34.13;;
4565;SDS011;2295;51.050;14.608;2022-12-10T07:48:48;115.10;;;33.42;;
4565;SDS011;2295;51.050;14.608;2022-12-10T07:51:17;114.65;;;32.13;;
4565;SDS011;2295;51.050;14.608;2022-12-10T07:53:47;138.15;;;36.45;;
4565;SDS011;2295;51.050;14.608;2022-12-10T07:56:15;125.38;;;34.55;;
4565;SDS011;2295;51.050;14.608;2022-12-10T07:58:44;112.97;;;33.20;;
4565;SDS011;2295;51.050;14.608;2022-12-10T08:01:15;109.20;;;29.40;;
4565;SDS011;2295;51.050;14.608;2022-12-10T08:03:44;120.82;;;32.40;;
4565;SDS011;2295;51.050;14.608;2022-12-10T08:06:13;129.02;;;33.20;;
4565;SDS011;2295;51.050;14.608;2022-12-10T08:08:43;122.82;;;33.80;;
4565;SDS011;2295;51.050;14.608;2022-12-10T08:11:12;128.77;;;34.35;;
4565;SDS011;2295;51.050;14.608;2022-12-10T08:13:41;142.03;;;40.43;;
4565;SDS011;2295;51.050;14.608;2022-12-10T08:16:11;132.32;;;36.45;;
4565;SDS011;2295;51.050;14.608;2022-12-10T08:18:45;125.03;;;36.13;;
4565;SDS011;2295;51.050;14.608;2022-12-10T08:21:14;149.32;;;45.05;;
4565;SDS011;2295;51.050;14.608;2022-12-10T08:23:45;128.00;;;35.45;;
4565;SDS011;2295;51.050;14.608;2022-12-10T08:26:14;120.78;;;33.97;;
4565;SDS011;2295;51.050;14.608;2022-12-10T08:28:44;101.97;;;31.35;;
4565;SDS011;2295;51.050;14.608;2022-12-10T08:31:12;115.68;;;31.02;;
4565;SDS011;2295;51.050;14.608;2022-12-10T08:33:43;106.10;;;31.20;;
4565;SDS011;2295;51.050;14.608;2022-12-10T08:36:12;124.82;;;32.05;;
4565;SDS011;2295;51.050;14.608;2022-12-10T08:38:42;107.10;;;30.98;;
4565;SDS011;2295;51.050;14.608;2022-12-10T08:41:12;116.40;;;32.10;;
4565;SDS011;2295;51.050;14.608;2022-12-10T08:43:42;113.05;;;31.23;;
4565;SDS011;2295;51.050;14.608;2022-12-10T08:46:11;105.15;;;28.60;;
4565;SDS011;2295;51.050;14.608;2022-12-10T08:48:40;110.07;;;32.05;;
4565;SDS011;2295;51.050;14.608;2022-12-10T08:51:11;115.40;;;32.15;;
4565;SDS011;2295;51.050;14.608;2022-12-10T08:53:42;136.30;;;36.38;;
4565;SDS011;2295;51.050;14.608;2022-12-10T08:56:10;124.10;;;34.00;;
4565;SDS011;2295;51.050;14.608;2022-12-10T08:58:39;117.65;;;31.90;;
4565;SDS011;2295;51.050;14.608;2022-12-10T09:01:07;110.75;;;32.90;;
4565;SDS011;2295;51.050;14.608;2022-12-10T09:03:36;126.38;;;33.72;;
4565;SDS011;2295;51.050;14.608;2022-12-10T09:06:07;114.25;;;33.55;;
4565;SDS011;2295;51.050;14.608;2022-12-10T09:08:36;126.00;;;31.83;;
4565;SDS011;2295;51.050;14.608;2022-12-10T09:11:05;125.78;;;31.27;;
4565;SDS011;2295;51.050;14.608;2022-12-10T09:13:37;107.15;;;32.55;;
4565;SDS011;2295;51.050;14.608;2022-12-10T09:16:05;125.80;;;34.40;;
4565;SDS011;2295;51.050;14.608;2022-12-10T09:18:35;119.07;;;34.15;;
4565;SDS011;2295;51.050;14.608;2022-12-10T09:21:04;117.10;;;33.45;;
4565;SDS011;2295;51.050;14.608;2022-12-10T09:23:35;132.32;;;36.70;;
4565;SDS011;2295;51.050;14.608;2022-12-10T09:26:04;118.68;;;34.63;;
4565;SDS011;2295;51.050;14.608;2022-12-10T09:28:34;142.73;;;37.08;;
4565;SDS011;2295;51.050;14.608;2022-12-10T09:31:03;118.78;;;31.92;;
4565;SDS011;2295;51.050;14.608;2022-12-10T09:33:40;124.82;;;32.20;;
4565;SDS011;2295;51.050;14.608;2022-12-10T09:36:10;142.98;;;36.17;;
4565;SDS011;2295;51.050;14.608;2022-12-10T09:38:40;127.25;;;34.10;;
4565;SDS011;2295;51.050;14.608;2022-12-10T09:41:17;134.60;;;37.67;;
4565;SDS011;2295;51.050;14.608;2022-12-10T09:44:00;116.18;;;36.03;;
4565;SDS011;2295;51.050;14.608;2022-12-10T09:46:36;120.18;;;33.17;;
4565;SDS011;2295;51.050;14.608;2022-12-10T09:49:13;105.68;;;32.03;;
4565;SDS011;2295;51.050;14.608;2022-12-10T09:51:49;105.55;;;31.35;;
4565;SDS011;2295;51.050;14.608;2022-12-10T09:54:22;111.80;;;32.13;;
4565;SDS011;2295;51.050;14.608;2022-12-10T09:56:54;119.78;;;31.45;;
4565;SDS011;2295;51.050;14.608;2022-12-10T09:59:27;114.18;;;32.78;;
4565;SDS011;2295;51.050;14.608;2022-12-10T10:02:02;130.40;;;33.90;;
4565;SDS011;2295;51.050;14.608;2022-12-10T10:04:38;127.07;;;35.10;;
4565;SDS011;2295;51.050;14.608;2022-12-10T10:07:08;132.18;;;34.25;;
4565;SDS011;2295;51.050;14.608;2022-12-10T10:09:47;119.13;;;33.17;;
4565;SDS011;2295;51.050;14.608;2022-12-10T10:12:16;116.63;;;33.15;;
4565;SDS011;2295;51.050;14.608;2022-12-10T10:14:44;114.57;;;30.55;;
4565;SDS011;2295;51.050;14.608;2022-12-10T10:17:22;114.63;;;31.77;;
4565;SDS011;2295;51.050;14.608;2022-12-10T10:20:01;124.13;;;31.95;;
4565;SDS011;2295;51.050;14.608;2022-12-10T10:22:31;103.22;;;28.85;;
4565;SDS011;2295;51.050;14.608;2022-12-10T10:24:59;114.93;;;31.33;;
4565;SDS011;2295;51.050;14.608;2022-12-10T10:27:30;109.18;;;32.65;;
4565;SDS011;2295;51.050;14.608;2022-12-10T10:30:00;132.20;;;35.45;;
4565;SDS011;2295;51.050;14.608;2022-12-10T10:32:44;117.13;;;32.88;;
4565;SDS011;2295;51.050;14.608;2022-12-10T10:35:20;116.20;;;31.83;;
4565;SDS011;2295;51.050;14.608;2022-12-10T10:38:05;108.05;;;31.63;;
4565;SDS011;2295;51.050;14.608;2022-12-10T10:40:39;116.38;;;32.65;;
4565;SDS011;2295;51.050;14.608;2022-12-10T10:43:12;101.70;;;31.75;;
4565;SDS011;2295;51.050;14.608;2022-12-10T10:45:47;114.32;;;31.65;;
4565;SDS011;2295;51.050;14.608;2022-12-10T10:48:19;115.18;;;31.27;;
4565;SDS011;2295;51.050;14.608;2022-12-10T10:50:49;106.97;;;29.95;;
4565;SDS011;2295;51.050;14.608;2022-12-10T10:53:24;105.15;;;30.90;;
4565;SDS011;2295;51.050;14.608;2022-12-10T10:55:55;102.25;;;30.77;;
4565;SDS011;2295;51.050;14.608;2022-12-10T10:58:26;108.30;;;30.90;;
4565;SDS011;2295;51.050;14.608;2022-12-10T11:00:59;126.20;;;30.88;;
4565;SDS011;2295;51.050;14.608;2022-12-10T11:03:29;116.00;;;32.42;;
4565;SDS011;2295;51.050;14.608;2022-12-10T11:05:59;107.95;;;30.80;;
4565;SDS011;2295;51.050;14.608;2022-12-10T11:08:30;108.38;;;30.65;;
4565;SDS011;2295;51.050;14.608;2022-12-10T11:11:02;119.78;;;31.33;;
4565;SDS011;2295;51.050;14.608;2022-12-10T11:13:32;112.53;;;30.70;;
4565;SDS011;2295;51.050;14.608;2022-12-10T11:16:09;120.05;;;27.80;;
4565;SDS011;2295;51.050;14.608;2022-12-10T11:18:39;110.28;;;30.75;;
4565;SDS011;2295;51.050;14.608;2022-12-10T11:21:16;106.35;;;29.17;;
4565;SDS011;2295;51.050;14.608;2022-12-10T11:23:51;117.78;;;31.40;;
4565;SDS011;2295;51.050;14.608;2022-12-10T11:26:33;118.22;;;31.35;;
4565;SDS011;2295;51.050;14.608;2022-12-10T11:29:32;101.10;;;28.73;;
4565;SDS011;2295;51.050;14.608;2022-12-10T11:32:20;109.75;;;30.83;;
4565;SDS011;2295;51.050;14.608;2022-12-10T11:35:01;113.43;;;30.70;;
4565;SDS011;2295;51.050;14.608;2022-12-10T11:37:37;115.82;;;32.22;;
4565;SDS011;2295;51.050;14.608;2022-12-10T11:40:19;101.03;;;29.45;;
4565;SDS011;2295;51.050;14.608;2022-12-10T11:43:14;105.40;;;29.83;;
4565;SDS011;2295;51.050;14.608;2022-12-10T11:46:00;116.43;;;30.83;;
4565;SDS011;2295;51.050;14.608;2022-12-10T11:48:42;118.90;;;31.80;;
4565;SDS011;2295;51.050;14.608;2022-12-10T11:51:23;126.75;;;30.73;;
4565;SDS011;2295;51.050;14.608;2022-12-10T11:54:05;105.88;;;29.65;;
4565;SDS011;2295;51.050;14.608;2022-12-10T11:56:44;108.10;;;29.58;;
4565;SDS011;2295;51.050;14.608;2022-12-10T11:59:19;107.63;;;31.17;;
4565;SDS011;2295;51.050;14.608;2022-12-10T12:02:28;100.88;;;28.40;;
4565;SDS011;2295;51.050;14.608;2022-12-10T12:05:18;95.18;;;28.55;;
4565;SDS011;2295;51.050;14.608;2022-12-10T12:07:54;93.20;;;26.38;;
4565;SDS011;2295;51.050;14.608;2022-12-10T12:10:50;90.03;;;26.83;;
4565;SDS011;2295;51.050;14.608;2022-12-10T12:13:30;100.15;;;29.08;;
4565;SDS011;2295;51.050;14.608;2022-12-10T12:16:04;94.50;;;27.60;;
4565;SDS011;2295;51.050;14.608;2022-12-10T12:18:42;86.10;;;26.73;;
4565;SDS011;2295;51.050;14.608;2022-12-10T12:21:17;99.50;;;27.23;;
4565;SDS011;2295;51.050;14.608;2022-12-10T12:23:47;82.28;;;26.45;;
4565;SDS011;2295;51.050;14.608;2022-12-10T12:26:26;94.95;;;26.90;;
4565;SDS011;2295;51.050;14.608;2022-12-10T12:28:59;81.20;;;26.58;;
4565;SDS011;2295;51.050;14.608;2022-12-10T12:31:34;81.05;;;25.30;;
4565;SDS011;2295;51.050;14.608;2022-12-10T12:34:05;75.20;;;24.02;;
4565;SDS011;2295;51.050;14.608;2022-12-10T12:36:41;81.65;;;25.35;;
4565;SDS011;2295;51.050;14.608;2022-12-10T12:39:12;78.28;;;25.95;;
4565;SDS011;2295;51.050;14.608;2022-12-10T12:41:48;87.50;;;26.20;;
4565;SDS011;2295;51.050;14.608;2022-12-10T12:44:31;85.07;;;26.25;;
4565;SDS011;2295;51.050;14.608;2022-12-10T12:47:11;80.72;;;27.45;;
4565;SDS011;2295;51.050;14.608;2022-12-10T12:49:47;95.97;;;28.98;;
4565;SDS011;2295;51.050;14.608;2022-12-10T12:52:20;96.53;;;28.95;;
4565;SDS011;2295;51.050;14.608;2022-12-10T12:54:59;90.00;;;27.25;;
4565;SDS011;2295;51.050;14.608;2022-12-10T12:57:34;111.90;;;35.50;;
4565;SDS011;2295;51.050;14.608;2022-12-10T13:00:11;86.53;;;29.73;;
4565;SDS011;2295;51.050;14.608;2022-12-10T13:02:46;105.63;;;38.38;;
4565;SDS011;2295;51.050;14.608;2022-12-10T13:05:28;109.88;;;33.97;;
4565;SDS011;2295;51.050;14.608;2022-12-10T13:10:53;83.45;;;32.50;;
4565;SDS011;2295;51.050;14.608;2022-12-10T13:13:28;93.38;;;32.50;;
4565;SDS011;2295;51.050;14.608;2022-12-10T13:19:28;94.20;;;34.30;;
4565;SDS011;2295;51.050;14.608;2022-12-10T13:21:58;90.35;;;32.63;;
4565;SDS011;2295;51.050;14.608;2022-12-10T13:24:43;89.45;;;29.17;;
4565;SDS011;2295;51.050;14.608;2022-12-10T13:27:29;85.28;;;29.33;;
4565;SDS011;2295;51.050;14.608;2022-12-10T13:30:00;76.10;;;26.90;;
4565;SDS011;2295;51.050;14.608;2022-12-10T13:32:44;73.75;;;26.38;;
4565;SDS011;2295;51.050;14.608;2022-12-10T13:35:28;81.63;;;27.67;;
4565;SDS011;2295;51.050;14.608;2022-12-10T13:38:02;86.60;;;27.05;;
4565;SDS011;2295;51.050;14.608;2022-12-10T13:40:39;79.03;;;26.17;;
4565;SDS011;2295;51.050;14.608;2022-12-10T13:43:24;69.35;;;24.23;;
4565;SDS011;2295;51.050;14.608;2022-12-10T13:46:20;77.22;;;25.65;;
4565;SDS011;2295;51.050;14.608;2022-12-10T13:48:51;68.65;;;26.50;;
4565;SDS011;2295;51.050;14.608;2022-12-10T13:57:28;73.82;;;25.27;;
4565;SDS011;2295;51.050;14.608;2022-12-10T14:00:07;82.20;;;26.90;;
4565;SDS011;2295;51.050;14.608;2022-12-10T14:02:54;72.18;;;26.42;;
4565;SDS011;2295;51.050;14.608;2022-12-10T14:05:48;71.40;;;26.15;;
4565;SDS011;2295;51.050;14.608;2022-12-10T14:08:24;66.20;;;24.85;;
4565;SDS011;2295;51.050;14.608;2022-12-10T14:10:56;60.45;;;24.98;;
4565;SDS011;2295;51.050;14.608;2022-12-10T14:13:30;67.18;;;24.67;;
4565;SDS011;2295;51.050;14.608;2022-12-10T14:16:04;66.32;;;25.08;;
4565;SDS011;2295;51.050;14.608;2022-12-10T14:18:41;69.03;;;26.23;;
4565;SDS011;2295;51.050;14.608;2022-12-10T14:21:14;68.18;;;26.45;;
4565;SDS011;2295;51.050;14.608;2022-12-10T14:23:44;84.40;;;27.58;;
4565;SDS011;2295;51.050;14.608;2022-12-10T14:26:22;67.20;;;24.65;;
4565;SDS011;2295;51.050;14.608;2022-12-10T14:28:55;75.32;;;26.10;;
4565;SDS011;2295;51.050;14.608;2022-12-10T14:31:26;61.05;;;23.35;;
4565;SDS011;2295;51.050;14.608;2022-12-10T14:33:59;65.07;;;24.05;;
4565;SDS011;2295;51.050;14.608;2022-12-10T14:36:31;53.28;;;22.00;;
4565;SDS011;2295;51.050;14.608;2022-12-10T14:39:05;70.32;;;23.17;;
4565;SDS011;2295;51.050;14.608;2022-12-10T14:41:41;75.68;;;26.25;;
4565;SDS011;2295;51.050;14.608;2022-12-10T14:44:11;64.38;;;24.35;;
4565;SDS011;2295;51.050;14.608;2022-12-10T14:46:42;68.75;;;26.73;;
4565;SDS011;2295;51.050;14.608;2022-12-10T14:49:13;69.93;;;24.05;;
4565;SDS011;2295;51.050;14.608;2022-12-10T14:51:45;69.53;;;24.58;;
4565;SDS011;2295;51.050;14.608;2022-12-10T14:54:24;70.60;;;24.58;;
4565;SDS011;2295;51.050;14.608;2022-12-10T14:56:55;66.65;;;23.42;;
4565;SDS011;2295;51.050;14.608;2022-12-10T14:59:26;68.90;;;24.08;;
4565;SDS011;2295;51.050;14.608;2022-12-10T15:02:01;72.88;;;26.70;;
4565;SDS011;2295;51.050;14.608;2022-12-10T15:04:39;69.53;;;25.40;;
4565;SDS011;2295;51.050;14.608;2022-12-10T15:07:15;62.90;;;22.70;;
4565;SDS011;2295;51.050;14.608;2022-12-10T15:09:46;76.93;;;25.67;;